Kisakata, Japan
Current Conditions -  °F | °C
As of 9:00 PM on Monday 24 Nov 2014 (Local Time) from RJSY Reporting Station
Broken Clouds Broken Clouds  
Wind Chill: 43°   Ceiling: 7000
Heat Index: 46°   Visibility: 6mi
Dew Point: 41°   Wind: 7mph
Humidity: 81%   Direction: 90°E
Pressure: 30.06"   Gusts: NA
Location:  39.22°N, 139.9°E
Report Text: RJSY 241200Z 09006KT 9999 FEW040 BKN070 08/05 Q1018
Loading
Personal Weather Stations






























Interactive Weather Map New forecast layout! Learn more

10-Day Weather Forecast

Advertisements
Track Severe Weather on mobile